createdAt,value
2022-11-03T00:02:00.363Z,3.72
2022-11-03T00:04:27.604Z,2.92
2022-11-03T00:06:55.778Z,3.85
2022-11-03T00:09:24.049Z,2.60
2022-11-03T00:11:51.708Z,1.35
2022-11-03T00:14:20.082Z,4.28
2022-11-03T00:16:47.343Z,2.22
2022-11-03T00:19:16.410Z,4.25
2022-11-03T00:21:43.996Z,1.23
2022-11-03T00:24:11.158Z,3.60
2022-11-03T00:26:39.086Z,1.30
2022-11-03T00:29:14.100Z,1.63
2022-11-03T00:31:43.623Z,3.03
2022-11-03T00:34:11.174Z,4.32
2022-11-03T00:36:40.874Z,3.08
2022-11-03T00:39:09.109Z,2.22
2022-11-03T00:41:36.904Z,3.20
2022-11-03T00:44:04.111Z,3.20
2022-11-03T00:46:35.065Z,2.17
2022-11-03T00:49:02.579Z,1.77
2022-11-03T00:51:30.881Z,2.10
2022-11-03T00:53:59.981Z,2.90
2022-11-03T00:56:29.349Z,4.75
2022-11-03T00:58:58.847Z,3.05
2022-11-03T01:01:38.080Z,2.20
2022-11-03T01:04:27.505Z,1.60
2022-11-03T01:09:30.801Z,4.28
2022-11-03T01:12:13.590Z,3.97
2022-11-03T01:14:44.639Z,1.35
2022-11-03T01:17:17.793Z,2.92
2022-11-03T01:19:45.267Z,2.75
2022-11-03T01:22:12.779Z,1.63
2022-11-03T01:24:41.642Z,5.22
2022-11-03T01:27:10.691Z,4.03
2022-11-03T01:29:37.736Z,3.35
2022-11-03T01:32:05.075Z,4.18
2022-11-03T01:34:32.271Z,3.15
2022-11-03T01:37:02.610Z,4.35
2022-11-03T01:39:29.530Z,1.95
2022-11-03T01:41:56.545Z,4.82
2022-11-03T01:44:25.119Z,8.68
2022-11-03T01:46:54.934Z,4.60
2022-11-03T01:49:47.380Z,7.00
2022-11-03T01:52:20.164Z,3.95
2022-11-03T01:54:53.580Z,7.38
2022-11-03T01:57:26.090Z,4.38
2022-11-03T01:59:58.111Z,6.32
2022-11-03T02:02:26.715Z,6.22
2022-11-03T02:04:55.936Z,3.88
2022-11-03T02:07:28.622Z,6.10
2022-11-03T02:09:55.565Z,7.43
2022-11-03T02:12:23.102Z,10.52
2022-11-03T02:15:01.986Z,7.22
2022-11-03T02:17:32.456Z,3.75
2022-11-03T02:20:06.954Z,4.00
2022-11-03T02:22:42.898Z,5.25
2022-11-03T02:25:37.876Z,6.18
2022-11-03T02:28:06.179Z,2.88
2022-11-03T02:30:43.387Z,2.67
2022-11-03T02:33:34.543Z,2.72
2022-11-03T02:36:12.513Z,2.50
2022-11-03T02:38:47.135Z,4.00
2022-11-03T02:41:16.431Z,1.65
2022-11-03T02:43:45.047Z,8.27
2022-11-03T02:46:14.882Z,3.67
2022-11-03T02:48:41.974Z,5.07
2022-11-03T02:51:09.094Z,6.45
2022-11-03T02:53:46.385Z,11.52
2022-11-03T02:56:23.276Z,6.93
2022-11-03T02:59:02.194Z,9.18
2022-11-03T03:01:35.115Z,1.92
2022-11-03T03:04:06.989Z,7.88
2022-11-03T03:06:37.216Z,6.18
2022-11-03T03:09:10.140Z,3.35
2022-11-03T03:11:43.002Z,5.65
2022-11-03T03:14:20.585Z,6.80
2022-11-03T03:17:38.391Z,5.35
2022-11-03T03:22:44.782Z,5.43
2022-11-03T03:25:17.678Z,4.95
2022-11-03T03:27:50.237Z,4.90
2022-11-03T03:30:18.896Z,9.35
2022-11-03T03:32:50.085Z,7.95
2022-11-03T03:35:26.918Z,7.90
2022-11-03T03:37:59.231Z,4.15
2022-11-03T03:40:39.255Z,10.45
2022-11-03T03:43:10.710Z,11.05
2022-11-03T03:45:38.741Z,2.70
2022-11-03T03:48:07.303Z,10.05
2022-11-03T03:50:38.170Z,9.57
2022-11-03T03:53:09.600Z,8.10
2022-11-03T03:55:42.181Z,9.57
2022-11-03T03:58:12.982Z,7.72
2022-11-03T04:00:40.811Z,2.45
2022-11-03T04:03:17.808Z,5.05
2022-11-03T04:05:45.478Z,6.25
2022-11-03T04:08:13.411Z,9.40
2022-11-03T04:10:40.440Z,6.25
2022-11-03T04:13:27.479Z,7.00
2022-11-03T04:15:57.354Z,8.68
2022-11-03T04:18:42.834Z,6.05
2022-11-03T04:21:31.321Z,6.13
2022-11-03T04:24:00.389Z,6.40
2022-11-03T04:26:28.833Z,12.07
2022-11-03T04:28:56.247Z,6.22
2022-11-03T04:31:23.375Z,5.53
2022-11-03T04:33:51.004Z,5.72
2022-11-03T04:36:23.688Z,5.82
2022-11-03T04:38:51.913Z,4.82
2022-11-03T04:41:25.403Z,4.15
2022-11-03T04:43:53.517Z,5.07
2022-11-03T04:46:29.284Z,4.00
2022-11-03T04:49:00.666Z,5.10
2022-11-03T04:51:31.240Z,2.67
2022-11-03T04:54:13.456Z,2.00
2022-11-03T04:56:40.993Z,6.82
2022-11-03T04:59:15.532Z,2.55
2022-11-03T05:01:45.212Z,4.18
2022-11-03T05:04:16.949Z,5.22
2022-11-03T05:06:53.255Z,2.75
2022-11-03T05:11:57.305Z,3.13
2022-11-03T05:14:32.022Z,4.97
2022-11-03T05:17:02.476Z,4.53
2022-11-03T05:19:36.712Z,4.10
2022-11-03T05:22:05.102Z,10.18
2022-11-03T05:24:33.590Z,8.52
2022-11-03T05:27:00.725Z,7.60
2022-11-03T05:29:37.223Z,8.38
2022-11-03T05:32:31.149Z,5.13
2022-11-03T05:34:58.406Z,6.75
2022-11-03T05:37:31.737Z,3.55
2022-11-03T05:40:22.091Z,7.50
2022-11-03T05:42:53.372Z,6.90
2022-11-03T05:45:24.499Z,3.97
2022-11-03T05:47:55.051Z,4.32
2022-11-03T05:50:27.582Z,3.88
2022-11-03T05:53:39.488Z,2.63
2022-11-03T05:56:07.318Z,2.17
2022-11-03T05:58:42.376Z,2.33
2022-11-03T06:01:34.614Z,6.95
2022-11-03T06:04:26.835Z,3.47
2022-11-03T06:07:02.093Z,4.32
2022-11-03T06:09:32.184Z,5.22
2022-11-03T06:12:02.525Z,1.40
2022-11-03T06:14:31.706Z,3.63
2022-11-03T06:17:02.218Z,4.68
2022-11-03T06:19:40.481Z,2.25
2022-11-03T06:22:25.612Z,2.17
2022-11-03T06:25:01.691Z,4.50
2022-11-03T06:27:34.405Z,8.27
2022-11-03T06:30:24.818Z,3.03
2022-11-03T06:32:52.208Z,1.38
2022-11-03T06:35:19.587Z,0.45
2022-11-03T06:37:47.125Z,1.15
2022-11-03T06:40:13.969Z,1.40
2022-11-03T06:42:41.204Z,2.33
2022-11-03T06:45:23.990Z,0.98
2022-11-03T06:47:54.777Z,2.03
2022-11-03T06:50:32.722Z,2.28
2022-11-03T06:53:02.643Z,1.50
2022-11-03T06:55:34.661Z,2.17
2022-11-03T06:58:19.991Z,0.82
2022-11-03T07:00:50.850Z,2.80
2022-11-03T07:03:31.416Z,2.97
2022-11-03T07:06:06.190Z,1.85
2022-11-03T07:08:39.958Z,1.13
2022-11-03T07:11:26.471Z,5.13
2022-11-03T07:13:57.352Z,1.05
2022-11-03T07:16:32.880Z,1.40
2022-11-03T07:19:01.268Z,2.50
2022-11-03T07:22:00.446Z,1.58
2022-11-03T07:24:40.482Z,2.63
2022-11-03T07:27:29.779Z,0.80
2022-11-03T07:30:11.695Z,1.55
2022-11-03T07:32:39.533Z,1.23
2022-11-03T07:35:18.522Z,1.40
2022-11-03T07:37:47.806Z,1.02
2022-11-03T07:40:18.527Z,1.20
2022-11-03T07:42:45.585Z,2.17
2022-11-03T07:45:41.938Z,1.48
2022-11-03T07:48:23.967Z,0.93
2022-11-03T07:50:53.529Z,0.80
2022-11-03T07:53:38.255Z,1.58
2022-11-03T07:56:25.205Z,3.03
2022-11-03T07:59:19.011Z,3.10
2022-11-03T08:01:51.288Z,3.72
2022-11-03T08:04:27.418Z,2.33
2022-11-03T08:06:54.442Z,2.20
2022-11-03T08:09:22.050Z,0.65
2022-11-03T08:11:49.710Z,8.75
2022-11-03T08:14:16.964Z,3.78
2022-11-03T08:16:44.243Z,3.08
2022-11-03T08:19:11.310Z,5.28
2022-11-03T08:21:38.332Z,3.70
2022-11-03T08:24:06.161Z,1.13
2022-11-03T08:26:33.117Z,2.85
2022-11-03T08:29:00.266Z,1.30
2022-11-03T08:31:27.237Z,1.08
2022-11-03T08:33:54.157Z,0.60
2022-11-03T08:36:21.192Z,1.08
2022-11-03T08:38:48.194Z,2.28
2022-11-03T08:41:15.148Z,0.90
2022-11-03T08:43:42.127Z,0.60
2022-11-03T08:46:17.127Z,0.10
2022-11-03T08:48:45.487Z,0.68
2022-11-03T08:51:14.192Z,1.40
2022-11-03T08:53:44.700Z,1.05
2022-11-03T08:56:14.328Z,1.88
2022-11-03T08:58:44.231Z,5.90
2022-11-03T09:01:11.448Z,1.42
2022-11-03T09:03:39.031Z,0.88
2022-11-03T09:06:06.603Z,1.73
2022-11-03T09:11:20.490Z,0.63
2022-11-03T09:13:47.421Z,2.15
2022-11-03T09:16:14.528Z,3.42
2022-11-03T09:18:41.478Z,1.90
2022-11-03T09:21:09.050Z,1.08
2022-11-03T09:23:36.031Z,2.67
2022-11-03T09:26:02.981Z,1.58
2022-11-03T09:28:29.918Z,1.75
2022-11-03T09:30:56.947Z,0.15
2022-11-03T09:33:23.848Z,2.67
2022-11-03T09:35:50.747Z,0.98
2022-11-03T09:38:17.706Z,0.77
2022-11-03T09:40:44.695Z,0.70
2022-11-03T09:43:12.053Z,2.17
2022-11-03T09:45:39.578Z,2.58
2022-11-03T09:48:13.196Z,1.92
2022-11-03T09:50:40.547Z,4.13
2022-11-03T09:53:12.866Z,1.10
2022-11-03T09:55:40.367Z,0.35
2022-11-03T09:58:16.320Z,2.35
2022-11-03T10:00:43.644Z,2.38
2022-11-03T10:03:15.659Z,2.47
2022-11-03T10:05:45.234Z,0.30
2022-11-03T10:08:35.655Z,1.25
2022-11-03T10:11:05.404Z,0.25
2022-11-03T10:13:50.505Z,1.98
2022-11-03T10:16:20.180Z,1.98
2022-11-03T10:18:47.478Z,0.20
2022-11-03T10:21:36.138Z,0.82
2022-11-03T10:24:03.005Z,2.20
2022-11-03T10:26:35.729Z,0.20
2022-11-03T10:29:05.636Z,3.03
2022-11-03T10:31:35.659Z,0.80
2022-11-03T10:34:03.689Z,0.55
2022-11-03T10:36:32.601Z,0.35
2022-11-03T10:39:01.876Z,1.75
2022-11-03T10:41:31.348Z,0.65
2022-11-03T10:44:19.950Z,1.73
2022-11-03T10:47:01.653Z,0.70
2022-11-03T10:49:34.693Z,1.38
2022-11-03T10:52:20.861Z,0.70
2022-11-03T10:54:49.381Z,0.40
2022-11-03T10:57:17.731Z,0.57
2022-11-03T10:59:47.279Z,3.38
2022-11-03T11:02:22.266Z,0.65
2022-11-03T11:04:52.420Z,1.13
2022-11-03T11:07:27.052Z,1.77
2022-11-03T11:09:54.725Z,1.85
2022-11-03T11:12:25.666Z,3.58
2022-11-03T11:15:07.223Z,2.65
2022-11-03T11:17:48.090Z,2.97
2022-11-03T11:20:35.877Z,4.05
2022-11-03T11:23:27.617Z,2.08
2022-11-03T11:26:09.897Z,3.25
2022-11-03T11:28:42.472Z,0.50
2022-11-03T11:31:27.375Z,1.35
2022-11-03T11:34:09.338Z,7.07
2022-11-03T11:36:55.845Z,1.05
2022-11-03T11:39:28.884Z,1.02
2022-11-03T11:42:15.131Z,2.80
2022-11-03T11:44:48.301Z,3.00
2022-11-03T11:47:26.096Z,1.05
2022-11-03T11:50:10.972Z,1.98
2022-11-03T11:53:17.118Z,1.27
2022-11-03T11:55:59.072Z,2.58
2022-11-03T11:58:46.317Z,2.13
2022-11-03T12:01:37.855Z,1.70
2022-11-03T12:04:20.508Z,2.75
2022-11-03T12:06:47.586Z,0.93
2022-11-03T12:09:21.715Z,0.73
2022-11-03T12:11:55.347Z,1.73
2022-11-03T12:14:28.767Z,1.98
2022-11-03T12:16:57.386Z,3.17
2022-11-03T12:19:45.339Z,2.35
2022-11-03T12:22:24.213Z,0.85
2022-11-03T12:24:57.705Z,2.38
2022-11-03T12:27:24.675Z,4.05
2022-11-03T12:29:56.812Z,2.75
2022-11-03T12:32:32.587Z,3.13
2022-11-03T12:35:03.361Z,1.05
2022-11-03T12:37:30.442Z,1.85
2022-11-03T12:39:57.346Z,0.90
2022-11-03T12:42:25.476Z,4.65
2022-11-03T12:44:53.205Z,1.52
2022-11-03T12:47:20.599Z,3.50
2022-11-03T12:49:47.838Z,5.43
2022-11-03T12:52:15.074Z,2.65
2022-11-03T12:54:44.896Z,5.07
2022-11-03T12:57:11.815Z,1.95
2022-11-03T12:59:38.926Z,1.98
2022-11-03T13:02:06.319Z,3.75
2022-11-03T13:04:33.276Z,2.55
2022-11-03T13:07:00.591Z,0.95
2022-11-03T13:09:30.189Z,2.17
2022-11-03T13:12:15.867Z,4.13
2022-11-03T13:14:46.035Z,1.95
2022-11-03T13:17:15.599Z,0.80
2022-11-03T13:19:42.656Z,3.13
2022-11-03T13:22:09.599Z,2.28
2022-11-03T13:24:36.671Z,0.68
2022-11-03T13:27:03.738Z,0.90
2022-11-03T13:29:35.106Z,1.58
2022-11-03T13:32:03.839Z,1.90
2022-11-03T13:34:31.401Z,1.73
2022-11-03T13:36:58.865Z,0.65
2022-11-03T13:39:26.094Z,1.33
2022-11-03T13:41:53.087Z,3.83
2022-11-03T13:44:19.994Z,0.38
2022-11-03T13:46:47.012Z,1.00
2022-11-03T13:52:00.808Z,1.30
2022-11-03T14:00:05.400Z,0.73
2022-11-03T14:05:19.661Z,0.82
2022-11-03T14:07:46.675Z,3.17
2022-11-03T14:10:13.609Z,1.92
2022-11-03T14:12:40.491Z,1.13
2022-11-03T14:15:11.052Z,1.73
2022-11-03T14:17:39.750Z,2.03
2022-11-03T14:20:11.701Z,1.23
2022-11-03T14:22:39.669Z,1.00
2022-11-03T14:25:07.958Z,1.05
2022-11-03T14:27:35.005Z,2.78
2022-11-03T14:30:02.050Z,0.45
2022-11-03T14:32:28.981Z,1.58
2022-11-03T14:34:56.156Z,0.75
2022-11-03T14:37:25.518Z,0.85
2022-11-03T14:39:52.710Z,4.57
2022-11-03T14:42:19.793Z,0.52
2022-11-03T14:44:47.590Z,2.38
2022-11-03T14:47:18.023Z,1.00
2022-11-03T14:49:46.290Z,0.63
2022-11-03T14:52:14.060Z,1.50
2022-11-03T14:54:41.319Z,3.63
2022-11-03T14:57:09.752Z,0.55
2022-11-03T14:59:37.542Z,0.38
2022-11-03T15:02:05.942Z,0.38
2022-11-03T15:04:33.348Z,2.72
2022-11-03T15:07:00.481Z,1.58
2022-11-03T15:09:27.461Z,0.98
2022-11-03T15:11:54.540Z,1.42
2022-11-03T15:14:21.524Z,1.33
2022-11-03T15:16:48.661Z,0.57
2022-11-03T15:19:15.619Z,0.75
2022-11-03T15:21:42.653Z,1.88
2022-11-03T15:26:56.692Z,2.15
2022-11-03T15:29:24.154Z,1.90
2022-11-03T15:31:51.286Z,2.05
2022-11-03T15:34:18.674Z,0.63
2022-11-03T15:36:45.667Z,2.78
2022-11-03T15:39:13.599Z,1.23
2022-11-03T15:41:40.757Z,1.08
2022-11-03T15:44:07.794Z,1.65
2022-11-03T15:46:35.881Z,1.10
2022-11-03T15:49:03.444Z,1.15
2022-11-03T15:51:30.415Z,2.17
2022-11-03T15:53:59.234Z,0.98
2022-11-03T15:56:27.521Z,1.02
2022-11-03T15:58:55.152Z,0.85
2022-11-03T16:01:22.424Z,3.17
2022-11-03T16:03:49.697Z,1.35
2022-11-03T16:06:17.009Z,2.42
2022-11-03T16:08:44.051Z,2.85
2022-11-03T16:11:11.034Z,5.93
2022-11-03T16:13:38.075Z,34.50
2022-11-03T16:16:05.736Z,16.65
2022-11-03T16:18:32.610Z,7.85
2022-11-03T16:20:59.698Z,4.20
2022-11-03T16:23:26.794Z,7.78
2022-11-03T16:25:54.528Z,3.85
2022-11-03T16:28:21.527Z,5.05
2022-11-03T16:30:52.990Z,2.15
2022-11-03T16:33:21.560Z,4.95
2022-11-03T16:35:48.829Z,4.47
2022-11-03T16:38:15.848Z,5.07
2022-11-03T16:40:43.534Z,4.07
2022-11-03T16:43:12.295Z,2.85
2022-11-03T16:45:39.257Z,7.35
2022-11-03T16:48:07.312Z,3.58
2022-11-03T16:50:34.820Z,3.30
2022-11-03T16:53:01.879Z,4.35
2022-11-03T16:55:28.813Z,7.28
2022-11-03T16:57:55.710Z,22.58
2022-11-03T17:00:24.165Z,18.33
2022-11-03T17:02:51.184Z,17.13
2022-11-03T17:05:21.002Z,16.75
2022-11-03T17:07:53.246Z,16.30
2022-11-03T17:10:20.467Z,8.45
2022-11-03T17:12:47.316Z,8.35
2022-11-03T17:15:14.213Z,7.45
2022-11-03T17:17:41.610Z,5.85
2022-11-03T17:20:09.301Z,5.80
2022-11-03T17:22:36.531Z,7.43
2022-11-03T17:25:05.034Z,22.90
2022-11-03T17:27:48.239Z,13.38
2022-11-03T17:30:23.075Z,24.05
2022-11-03T17:32:56.191Z,13.00
2022-11-03T17:35:33.596Z,11.77
2022-11-03T17:38:06.400Z,9.35
2022-11-03T17:40:34.622Z,11.25
2022-11-03T17:43:01.696Z,10.20
2022-11-03T17:45:29.424Z,7.47
2022-11-03T17:47:56.507Z,7.85
2022-11-03T17:50:25.237Z,10.23
2022-11-03T17:52:53.816Z,7.10
2022-11-03T17:55:33.053Z,8.10
2022-11-03T17:58:02.653Z,9.27
2022-11-03T18:00:30.389Z,10.23
2022-11-03T18:02:57.499Z,7.30
2022-11-03T18:05:31.889Z,7.50
2022-11-03T18:08:01.544Z,9.43
2022-11-03T18:10:52.599Z,8.38
2022-11-03T18:13:21.623Z,9.00
2022-11-03T18:15:54.850Z,11.27
2022-11-03T18:18:26.236Z,9.90
2022-11-03T18:20:54.119Z,34.90
2022-11-03T18:23:26.773Z,35.20
2022-11-03T18:25:54.038Z,22.48
2022-11-03T18:28:21.007Z,29.65
2022-11-03T18:30:51.353Z,25.50
2022-11-03T18:33:29.466Z,25.67
2022-11-03T18:35:57.370Z,40.38
2022-11-03T18:38:25.963Z,25.23
2022-11-03T18:40:53.328Z,34.25
2022-11-03T18:43:22.230Z,19.77
2022-11-03T18:45:49.727Z,18.92
2022-11-03T18:48:20.390Z,13.30
2022-11-03T18:50:55.771Z,15.75
2022-11-03T18:53:25.609Z,17.50
2022-11-03T18:55:54.127Z,14.25
2022-11-03T18:58:24.689Z,17.25
2022-11-03T19:00:52.834Z,11.63
2022-11-03T19:03:22.475Z,12.88
2022-11-03T19:05:51.982Z,9.38
2022-11-03T19:08:32.315Z,7.55
2022-11-03T19:11:06.432Z,6.40
2022-11-03T19:13:41.020Z,8.48
2022-11-03T19:16:16.584Z,8.88
2022-11-03T19:18:44.770Z,5.93
2022-11-03T19:21:20.894Z,7.72
2022-11-03T19:23:49.100Z,7.78
2022-11-03T19:26:26.006Z,4.55
2022-11-03T19:29:01.032Z,7.03
2022-11-03T19:31:48.829Z,7.32
2022-11-03T19:34:22.338Z,4.95
2022-11-03T19:36:51.146Z,6.05
2022-11-03T19:39:39.809Z,4.93
2022-11-03T19:42:28.431Z,3.17
2022-11-03T19:45:00.186Z,4.38
2022-11-03T19:47:34.724Z,2.60
2022-11-03T19:50:04.407Z,3.22
2022-11-03T19:52:32.695Z,4.53
2022-11-03T19:55:02.731Z,2.88
2022-11-03T19:57:29.699Z,1.77
2022-11-03T19:59:59.151Z,3.05
2022-11-03T20:02:28.227Z,3.63
2022-11-03T20:04:55.391Z,3.35
2022-11-03T20:07:28.185Z,2.45
2022-11-03T20:09:58.314Z,5.15
2022-11-03T20:12:25.344Z,3.15
2022-11-03T20:14:52.328Z,3.00
2022-11-03T20:17:23.044Z,3.05
2022-11-03T20:19:50.201Z,3.35
2022-11-03T20:22:29.703Z,4.68
2022-11-03T20:25:01.432Z,3.92
2022-11-03T20:27:28.524Z,4.40
2022-11-03T20:29:55.543Z,4.95
2022-11-03T20:32:23.200Z,5.13
2022-11-03T20:34:50.168Z,6.40
2022-11-03T20:37:19.191Z,3.45
2022-11-03T20:39:48.828Z,3.72
2022-11-03T20:42:22.762Z,7.50
2022-11-03T20:44:50.128Z,11.77
2022-11-03T20:47:17.967Z,6.35
2022-11-03T20:49:45.855Z,13.50
2022-11-03T20:52:16.331Z,8.93
2022-11-03T20:54:43.836Z,7.47
2022-11-03T20:57:14.166Z,4.85
2022-11-03T20:59:41.676Z,9.70
2022-11-03T21:02:12.941Z,7.57
2022-11-03T21:04:41.287Z,4.13
2022-11-03T21:07:13.839Z,5.85
2022-11-03T21:09:41.506Z,5.65
2022-11-03T21:12:13.173Z,9.63
2022-11-03T21:15:01.627Z,6.43
2022-11-03T21:17:47.000Z,7.05
2022-11-03T21:20:14.674Z,7.82
2022-11-03T21:22:52.491Z,5.60
2022-11-03T21:25:22.056Z,3.83
2022-11-03T21:27:49.827Z,6.70
2022-11-03T21:30:18.141Z,6.22
2022-11-03T21:32:45.375Z,7.00
2022-11-03T21:35:15.575Z,6.15
2022-11-03T21:37:42.507Z,10.70
2022-11-03T21:40:10.525Z,2.83
2022-11-03T21:42:55.898Z,3.42
2022-11-03T21:45:22.857Z,3.10
2022-11-03T21:48:13.103Z,4.85
2022-11-03T21:50:40.884Z,1.45
2022-11-03T21:53:08.197Z,2.40
2022-11-03T21:55:35.769Z,3.95
2022-11-03T21:58:03.307Z,2.72
2022-11-03T22:00:30.806Z,3.65
2022-11-03T22:02:58.551Z,3.17
2022-11-03T22:05:26.559Z,3.15
2022-11-03T22:07:53.718Z,1.85
2022-11-03T22:10:20.834Z,5.13
2022-11-03T22:12:47.885Z,4.55
2022-11-03T22:15:33.116Z,4.38
2022-11-03T22:18:04.656Z,2.00
2022-11-03T22:20:50.153Z,3.58
2022-11-03T22:23:35.691Z,2.10
2022-11-03T22:26:21.486Z,4.18
2022-11-03T22:29:08.411Z,2.67
2022-11-03T22:31:40.933Z,5.25
2022-11-03T22:34:26.346Z,4.93
2022-11-03T22:36:53.326Z,4.70
2022-11-03T22:39:38.885Z,4.72
2022-11-03T22:42:24.608Z,3.17
2022-11-03T22:45:10.173Z,5.72
2022-11-03T22:47:37.202Z,5.93
2022-11-03T22:50:04.642Z,1.90
2022-11-03T22:52:31.624Z,4.85
2022-11-03T22:54:58.737Z,2.20
2022-11-03T22:57:25.746Z,5.03
2022-11-03T22:59:52.684Z,5.20
2022-11-03T23:02:19.777Z,4.45
2022-11-03T23:04:46.970Z,7.95
2022-11-03T23:07:14.133Z,6.13
2022-11-03T23:09:41.028Z,2.88
2022-11-03T23:12:07.971Z,2.10
2022-11-03T23:14:53.330Z,1.73
2022-11-03T23:17:20.225Z,1.27
2022-11-03T23:20:05.554Z,1.42
2022-11-03T23:22:32.511Z,0.90
2022-11-03T23:24:59.424Z,0.80
2022-11-03T23:27:26.524Z,4.18
2022-11-03T23:29:53.531Z,3.15
2022-11-03T23:32:20.474Z,1.50
2022-11-03T23:34:47.401Z,1.70
2022-11-03T23:37:14.526Z,2.58
2022-11-03T23:39:44.615Z,0.73
2022-11-03T23:42:11.539Z,1.30
2022-11-03T23:44:58.658Z,2.53
2022-11-03T23:47:44.256Z,4.85
2022-11-03T23:50:11.129Z,2.58
2022-11-03T23:52:38.038Z,1.40
2022-11-03T23:55:05.590Z,0.52
2022-11-03T23:57:50.855Z,1.33
